Time;durP1;ratioP1;P1;durP2;ratioP2;P2;SDS_P1;SDS_P2;PMS_P1;PMS_P2;Temp;Humidity;BMP_temperature;BMP_pressure;BME280_temperature;BME280_humidity;BME280_pressure;Samples;Min_cycle;Max_cycle;Signal;HPM_P1;HPM_P2
2023/02/22 00:00:00;;;;;;;495.23;56.00;;;;;;;5.07;100.00;101493.53;5225361;28;20025;-75
2023/02/22 00:02:33;;;;;;;388.20;46.45;;;;;;;5.08;100.00;101497.91;5225458;28;20024;-75
2023/02/22 00:05:03;;;;;;;330.67;43.85;;;;;;;5.09;100.00;101496.94;5212743;28;20025;-75
2023/02/22 00:07:34;;;;;;;375.85;47.28;;;;;;;5.04;100.00;101502.63;5225263;28;20029;-75
2023/02/22 00:10:07;;;;;;;580.97;58.03;;;;;;;5.00;100.00;101502.94;5208213;28;20092;-75
2023/02/22 00:12:42;;;;;;;524.95;53.78;;;;;;;4.97;100.00;101492.53;5227924;28;20025;-75
2023/02/22 00:15:14;;;;;;;413.05;47.22;;;;;;;4.99;100.00;101503.91;5225247;28;20028;-75
2023/02/22 00:17:45;;;;;;;368.77;47.70;;;;;;;5.01;100.00;101499.31;5225032;28;20032;-75
2023/02/22 00:20:16;;;;;;;411.80;50.22;;;;;;;5.04;100.00;101505.28;5225571;28;20556;-75
2023/02/22 00:22:50;;;;;;;416.35;46.72;;;;;;;5.02;100.00;101504.56;5207428;28;20110;-75
2023/02/22 00:25:23;;;;;;;486.80;50.13;;;;;;;5.02;100.00;101503.69;5207222;28;20029;-75
2023/02/22 00:27:55;;;;;;;508.73;47.42;;;;;;;5.02;100.00;101504.56;5224513;28;20025;-75
2023/02/22 00:30:28;;;;;;;448.63;48.53;;;;;;;4.98;100.00;101504.91;5225126;28;20100;-75
2023/02/22 00:32:59;;;;;;;389.77;45.78;;;;;;;4.99;100.00;101509.25;5207538;28;20025;-75
2023/02/22 00:35:30;;;;;;;311.02;43.45;;;;;;;5.00;100.00;101503.81;5225083;28;20036;-75
2023/02/22 00:38:02;;;;;;;477.23;52.53;;;;;;;5.01;100.00;101508.16;5223969;28;20025;-75
2023/02/22 00:40:34;;;;;;;327.15;41.72;;;;;;;5.02;100.00;101504.56;5224849;28;20655;-75
2023/02/22 00:43:05;;;;;;;335.50;46.85;;;;;;;5.03;100.00;101508.06;5207271;28;20409;-75
2023/02/22 00:45:36;;;;;;;609.90;56.80;;;;;;;5.00;100.00;101503.81;5224930;28;20044;-75
2023/02/22 00:48:08;;;;;;;230.15;41.42;;;;;;;5.03;100.00;101497.41;5224453;28;20540;-75
2023/02/22 00:50:38;;;;;;;571.40;55.00;;;;;;;5.03;100.00;101495.59;5224326;28;20029;-75
2023/02/22 00:53:10;;;;;;;289.38;42.03;;;;;;;5.01;100.00;101492.19;5225269;28;20032;-75
2023/02/22 00:55:41;;;;;;;505.55;52.65;;;;;;;5.02;100.00;101490.38;5224747;28;20060;-75
2023/02/22 00:58:11;;;;;;;458.08;47.70;;;;;;;5.03;100.00;101487.63;5224037;28;20040;-75
2023/02/22 01:00:42;;;;;;;474.55;48.88;;;;;;;5.01;100.00;101483.38;5223882;28;20037;-75
2023/02/22 01:03:16;;;;;;;421.15;48.33;;;;;;;5.00;100.00;101482.53;5224311;28;20090;-75
2023/02/22 01:05:46;;;;;;;463.77;49.78;;;;;;;4.99;100.00;101480.00;5223281;28;20021;-75
2023/02/22 01:08:17;;;;;;;384.00;45.53;;;;;;;4.98;100.00;101478.31;5223996;28;20031;-75
2023/02/22 01:10:48;;;;;;;556.22;54.25;;;;;;;4.97;100.00;101471.25;5206341;28;20486;-75
2023/02/22 01:13:18;;;;;;;497.25;49.67;;;;;;;4.91;100.00;101473.41;5223977;28;20021;-75
2023/02/22 01:15:49;;;;;;;363.45;43.38;;;;;;;4.90;100.00;101468.22;5206249;28;20025;-75
2023/02/22 01:18:20;;;;;;;410.50;43.83;;;;;;;4.88;100.00;101460.38;5224269;28;20083;-75
2023/02/22 01:20:51;;;;;;;432.30;48.90;;;;;;;4.89;100.00;101469.19;5206575;28;20100;-75
2023/02/22 01:23:21;;;;;;;474.45;49.45;;;;;;;4.89;100.00;101464.72;5206666;28;20107;-75
2023/02/22 01:25:52;;;;;;;415.27;47.25;;;;;;;4.85;100.00;101452.59;5205862;28;20551;-75
2023/02/22 01:28:23;;;;;;;467.05;47.90;;;;;;;4.83;100.00;101454.53;5223788;28;20096;-75
2023/02/22 01:30:55;;;;;;;415.50;47.67;;;;;;;4.84;100.00;101453.56;5224050;28;20108;-76
2023/02/22 01:33:26;;;;;;;397.42;46.45;;;;;;;4.81;100.00;101445.81;5224032;28;20067;-75
2023/02/22 01:35:56;;;;;;;496.67;50.63;;;;;;;4.78;100.00;101451.38;5224093;28;20691;-75
2023/02/22 01:38:27;;;;;;;454.63;46.85;;;;;;;4.76;100.00;101450.63;5222930;28;20036;-75
2023/02/22 01:40:57;;;;;;;397.63;45.17;;;;;;;4.73;100.00;101434.09;5223447;28;20059;-75
2023/02/22 01:43:30;;;;;;;461.75;43.58;;;;;;;4.72;100.00;101440.34;5223948;28;20037;-75
2023/02/22 01:46:39;;;;;;;470.05;49.22;;;;;;;4.57;100.00;101443.19;5223993;28;20025;-75
2023/02/22 01:49:10;;;;;;;397.63;44.22;;;;;;;4.60;100.00;101432.31;5213299;28;20083;-75
2023/02/22 01:51:46;;;;;;;517.72;51.65;;;;;;;4.61;100.00;101433.16;5223600;28;20017;-75
2023/02/22 01:54:24;;;;;;;392.92;47.67;;;;;;;4.60;100.00;101428.81;5223852;28;20025;-75
2023/02/22 01:57:14;;;;;;;418.52;46.97;;;;;;;4.64;100.00;101427.63;5223284;28;20031;-75
2023/02/22 01:59:49;;;;;;;441.30;47.25;;;;;;;4.63;100.00;101432.09;5223167;28;20029;-75
2023/02/22 02:02:20;;;;;;;478.45;54.42;;;;;;;4.59;100.00;101424.47;5224275;28;20021;-75
2023/02/22 02:04:54;;;;;;;418.30;48.10;;;;;;;4.58;100.00;101426.28;5223902;28;20032;-75
2023/02/22 02:07:28;;;;;;;411.17;45.33;;;;;;;4.55;100.00;101423.00;5206122;28;20028;-75
2023/02/22 02:10:03;;;;;;;592.10;55.08;;;;;;;4.45;100.00;101419.31;5223617;28;20013;-75
2023/02/22 02:12:35;;;;;;;500.83;48.75;;;;;;;4.43;100.00;101414.13;5206104;28;20028;-75
2023/02/22 02:15:27;;;;;;;398.45;45.42;;;;;;;4.44;100.00;101410.50;5227792;28;20036;-75
2023/02/22 02:18:02;;;;;;;502.50;53.38;;;;;;;4.38;100.00;101411.81;5227219;28;20035;-75
2023/02/22 02:20:52;;;;;;;550.13;53.58;;;;;;;4.23;100.00;101407.63;5209852;28;20033;-75
2023/02/22 02:23:57;;;;;;;620.33;54.88;;;;;;;4.19;100.00;101400.81;5227876;28;20124;-75
2023/02/22 02:26:41;;;;;;;407.90;42.67;;;;;;;4.22;100.00;101394.44;5216864;28;20598;-75
2023/02/22 02:29:49;;;;;;;480.67;48.05;;;;;;;4.18;100.00;101396.47;5193536;28;20086;-75
2023/02/22 02:32:19;;;;;;;418.15;46.30;;;;;;;4.13;100.00;101396.81;5227690;28;20620;-75
2023/02/22 02:35:05;;;;;;;384.63;43.00;;;;;;;4.10;100.00;101386.41;5209263;28;20090;-75
2023/02/22 02:37:45;;;;;;;411.30;45.38;;;;;;;4.02;100.00;101386.13;5215079;28;20055;-75
2023/02/22 02:40:48;;;;;;;343.83;40.83;;;;;;;3.88;100.00;101383.59;5226963;28;20103;-75
2023/02/22 02:43:25;;;;;;;434.35;45.63;;;;;;;3.92;100.00;101386.91;5227315;28;20036;-75
2023/02/22 02:46:01;;;;;;;498.90;52.13;;;;;;;3.93;100.00;101384.13;5227435;28;20044;-75
2023/02/22 02:48:34;;;;;;;393.75;44.42;;;;;;;3.95;100.00;101378.69;5226924;28;20405;-75
2023/02/22 02:51:08;;;;;;;396.63;45.60;;;;;;;4.01;100.00;101362.31;5226926;28;20090;-75
2023/02/22 02:53:44;;;;;;;402.17;47.35;;;;;;;4.02;100.00;101362.22;5226695;28;20100;-75
2023/02/22 02:56:14;;;;;;;657.35;61.83;;;;;;;3.99;100.00;101359.78;5226829;28;20036;-75
2023/02/22 02:58:48;;;;;;;387.98;47.53;;;;;;;3.99;100.00;101350.97;5226623;28;20021;-75
2023/02/22 03:01:53;;;;;;;343.02;42.85;;;;;;;3.99;100.00;101353.63;5226715;28;20142;-75
2023/02/22 03:04:41;;;;;;;421.92;46.25;;;;;;;3.89;100.00;101354.28;5208780;28;20031;-75
2023/02/22 03:07:32;;;;;;;408.27;46.38;;;;;;;3.90;100.00;101349.81;5226648;28;20082;-75
2023/02/22 03:10:38;;;;;;;441.60;47.80;;;;;;;3.83;100.00;101351.25;5214248;28;20540;-75
2023/02/22 03:13:31;;;;;;;332.90;43.80;;;;;;;3.75;100.00;101349.13;5227245;28;20514;-77
2023/02/22 03:16:32;;;;;;;297.33;38.80;;;;;;;3.73;100.00;101345.75;5226226;28;20031;-75
2023/02/22 03:19:10;;;;;;;281.27;39.10;;;;;;;3.71;100.00;101347.63;5226361;28;20025;-75
2023/02/22 03:22:07;;;;;;;354.67;41.40;;;;;;;3.67;100.00;101340.88;5226806;28;20025;-75
2023/02/22 03:25:06;;;;;;;251.15;38.67;;;;;;;3.70;100.00;101340.66;5225756;28;20025;-76
2023/02/22 03:27:42;;;;;;;306.60;37.42;;;;;;;3.67;100.00;101334.72;5226441;28;20477;-75
2023/02/22 03:30:20;;;;;;;339.30;42.03;;;;;;;3.64;100.00;101333.97;5230230;28;20021;-75
2023/02/22 03:32:57;;;;;;;403.77;39.75;;;;;;;3.58;100.00;101328.28;5233060;28;20021;-75
2023/02/22 03:35:34;;;;;;;366.65;41.33;;;;;;;3.57;100.00;101329.22;5226735;28;20028;-75
2023/02/22 03:38:08;;;;;;;404.60;40.63;;;;;;;3.54;100.00;101324.97;5208788;28;20112;-75
2023/02/22 03:40:44;;;;;;;466.52;48.78;;;;;;;3.47;100.00;101317.59;5208292;28;20029;-75
2023/02/22 03:43:20;;;;;;;373.42;40.97;;;;;;;3.50;100.00;101315.53;5208209;28;20033;-75
2023/02/22 03:45:51;;;;;;;307.00;43.63;;;;;;;3.52;100.00;101316.28;5226250;28;20036;-75
2023/02/22 03:48:32;;;;;;;393.60;42.03;;;;;;;3.50;100.00;101307.56;5208062;28;20044;-76
2023/02/22 03:51:04;;;;;;;302.27;36.40;;;;;;;3.52;100.00;101305.69;5208512;28;20025;-75
2023/02/22 03:53:36;;;;;;;329.88;42.70;;;;;;;3.49;100.00;101299.75;5225851;28;20032;-75
2023/02/22 03:56:09;;;;;;;390.20;44.72;;;;;;;3.48;100.00;101303.34;5207886;28;20029;-75
2023/02/22 03:58:43;;;;;;;290.45;38.70;;;;;;;3.48;100.00;101287.44;5225229;28;20025;-76
2023/02/22 04:01:14;;;;;;;378.52;46.40;;;;;;;3.51;100.00;101297.81;5207886;28;20037;-75
2023/02/22 04:03:44;;;;;;;255.18;38.78;;;;;;;3.50;100.00;101290.81;5216392;28;20540;-75
2023/02/22 04:06:15;;;;;;;254.48;39.08;;;;;;;3.51;100.00;101292.50;5203689;28;20032;-75
2023/02/22 04:08:45;;;;;;;282.77;37.30;;;;;;;3.53;100.00;101290.59;5225559;28;20020;-75
2023/02/22 04:11:16;;;;;;;316.23;42.88;;;;;;;3.53;100.00;101277.34;5225638;28;20025;-75
2023/02/22 04:13:46;;;;;;;193.55;35.50;;;;;;;3.55;100.00;101286.03;5225944;28;20024;-75
2023/02/22 04:16:17;;;;;;;186.10;32.45;;;;;;;3.43;100.00;101289.56;5207627;28;20052;-75
2023/02/22 04:18:47;;;;;;;229.40;36.65;;;;;;;3.33;100.00;101278.75;5207571;28;20028;-76
2023/02/22 04:21:18;;;;;;;208.00;35.63;;;;;;;3.34;100.00;101280.44;5207562;28;20024;-76
2023/02/22 04:23:49;;;;;;;212.60;32.83;;;;;;;3.31;100.00;101273.59;5225686;28;20508;-75
2023/02/22 04:26:19;;;;;;;229.63;36.00;;;;;;;3.28;100.00;101281.75;5225829;28;20032;-76
2023/02/22 04:28:49;;;;;;;206.85;35.40;;;;;;;3.29;100.00;101274.63;5207704;28;20041;-75
2023/02/22 04:31:20;;;;;;;217.68;36.08;;;;;;;3.29;100.00;101269.31;5225467;28;20082;-76
2023/02/22 04:33:50;;;;;;;176.65;32.88;;;;;;;3.33;100.00;101276.13;5207817;28;20052;-75
2023/02/22 04:36:21;;;;;;;202.82;35.67;;;;;;;3.31;100.00;101272.72;5207084;28;20024;-75
2023/02/22 04:38:52;;;;;;;164.98;31.63;;;;;;;3.34;100.00;101272.50;5225643;28;20135;-76
2023/02/22 04:41:23;;;;;;;229.50;37.50;;;;;;;3.35;100.00;101259.13;5225418;28;20028;-76
2023/02/22 04:43:53;;;;;;;207.73;36.75;;;;;;;3.41;100.00;101267.59;5225272;28;20029;-75
2023/02/22 04:46:24;;;;;;;194.90;33.08;;;;;;;3.39;100.00;101257.09;5207509;28;20021;-76
2023/02/22 04:48:54;;;;;;;224.38;35.90;;;;;;;3.35;100.00;101250.31;5225181;28;20021;-75
2023/02/22 04:51:25;;;;;;;195.05;32.72;;;;;;;3.33;100.00;101250.44;5225490;28;20028;-75
2023/02/22 04:53:56;;;;;;;154.63;30.75;;;;;;;3.32;100.00;101251.41;5207669;28;20025;-75
2023/02/22 04:56:26;;;;;;;224.20;32.85;;;;;;;3.28;100.00;101249.91;5224334;28;20127;-75
2023/02/22 04:58:57;;;;;;;138.68;28.30;;;;;;;3.29;100.00;101248.13;5224845;28;20539;-76
2023/02/22 05:01:38;;;;;;;104.45;29.52;;;;;;;3.27;100.00;101239.44;5224757;28;20055;-76
2023/02/22 05:04:09;;;;;;;99.20;27.45;;;;;;;3.25;100.00;101247.47;5212170;28;20037;-75
2023/02/22 05:06:39;;;;;;;105.05;28.15;;;;;;;3.25;100.00;101231.56;5222253;28;20029;-75
2023/02/22 05:09:10;;;;;;;113.93;28.80;;;;;;;3.25;100.00;101236.88;5224877;28;20489;-75
2023/02/22 05:11:40;;;;;;;100.30;28.33;;;;;;;3.23;100.00;101225.53;5224626;28;20024;-75
2023/02/22 05:14:11;;;;;;;103.07;29.33;;;;;;;3.22;100.00;101215.91;5224852;28;20021;-75
2023/02/22 05:16:42;;;;;;;101.25;29.48;;;;;;;3.23;100.00;101212.28;5224135;28;20028;-75
2023/02/22 05:19:12;;;;;;;115.45;28.67;;;;;;;3.24;100.00;101206.00;5224189;28;20439;-76
2023/02/22 05:21:43;;;;;;;152.73;31.27;;;;;;;3.25;100.00;101204.19;5206994;28;20033;-75
2023/02/22 05:24:13;;;;;;;125.32;31.48;;;;;;;3.27;100.00;101211.09;5224606;28;20421;-76
2023/02/22 05:26:44;;;;;;;167.50;32.90;;;;;;;3.31;100.00;101211.72;5224184;28;20041;-75
2023/02/22 05:29:15;;;;;;;270.48;40.03;;;;;;;3.25;100.00;101213.00;5224462;28;20032;-75
2023/02/22 05:31:45;;;;;;;174.93;36.28;;;;;;;3.24;100.00;101211.31;5223982;28;20032;-75
2023/02/22 05:34:16;;;;;;;190.77;34.70;;;;;;;3.25;100.00;101205.06;5224352;28;20110;-75
2023/02/22 05:36:46;;;;;;;172.60;33.60;;;;;;;3.22;100.00;101199.97;5223945;28;20081;-75
2023/02/22 05:39:17;;;;;;;186.68;32.47;;;;;;;3.23;100.00;101199.03;5224167;28;20171;-75
2023/02/22 05:41:47;;;;;;;184.07;35.05;;;;;;;3.24;100.00;101197.22;5224145;28;20059;-76
2023/02/22 05:44:18;;;;;;;223.43;34.47;;;;;;;3.23;100.00;101195.53;5224211;28;20091;-75
2023/02/22 05:46:48;;;;;;;226.00;36.40;;;;;;;3.14;100.00;101197.03;5189533;28;20031;-75
2023/02/22 05:49:19;;;;;;;173.15;33.25;;;;;;;3.10;100.00;101196.38;5224218;28;20025;-75
2023/02/22 05:51:49;;;;;;;138.05;31.17;;;;;;;3.10;100.00;101182.28;5223842;28;20036;-75
2023/02/22 05:54:20;;;;;;;145.85;29.00;;;;;;;3.08;100.00;101184.22;5223825;28;20021;-75
2023/02/22 05:56:50;;;;;;;106.93;30.60;;;;;;;3.08;100.00;101178.91;5223489;28;20923;-75
2023/02/22 05:59:21;;;;;;;108.70;28.63;;;;;;;3.08;100.00;101169.16;5223808;28;20033;-75
2023/02/22 06:01:51;;;;;;;119.43;30.00;;;;;;;3.00;100.00;101173.31;5206211;28;20086;-75
2023/02/22 06:04:22;;;;;;;123.45;31.23;;;;;;;2.90;100.00;101183.72;5210585;28;20104;-75
2023/02/22 06:06:52;;;;;;;105.93;28.92;;;;;;;2.83;100.00;101187.75;5223817;28;20024;-75
2023/02/22 06:09:23;;;;;;;88.55;28.25;;;;;;;2.80;100.00;101193.25;5206085;28;20021;-75
2023/02/22 06:11:54;;;;;;;95.78;26.55;;;;;;;2.74;100.00;101186.59;5223971;28;20082;-75
2023/02/22 06:14:24;;;;;;;99.70;26.33;;;;;;;2.68;100.00;101187.03;5206245;28;20021;-75
2023/02/22 06:16:56;;;;;;;76.85;24.33;;;;;;;2.64;100.00;101185.53;5223665;28;20124;-75
2023/02/22 06:19:27;;;;;;;81.15;24.65;;;;;;;2.59;100.00;101188.50;5206060;28;20017;-75
2023/02/22 06:21:58;;;;;;;80.20;24.50;;;;;;;2.57;100.00;101185.13;5223641;28;20603;-75
2023/02/22 06:24:30;;;;;;;70.32;23.00;;;;;;;2.56;100.00;101177.28;5206114;28;20156;-75
2023/02/22 06:27:01;;;;;;;78.32;23.90;;;;;;;2.54;100.00;101181.84;5223519;28;20108;-75
2023/02/22 06:29:31;;;;;;;85.15;23.88;;;;;;;2.53;100.00;101182.81;5223834;28;20211;-75
2023/02/22 06:32:02;;;;;;;84.82;24.73;;;;;;;2.52;100.00;101178.47;5223513;28;20029;-75
2023/02/22 06:34:32;;;;;;;78.88;24.90;;;;;;;2.51;100.00;101185.56;5224060;28;20116;-75
2023/02/22 06:37:03;;;;;;;81.07;24.80;;;;;;;2.49;100.00;101195.41;5205468;28;20027;-75
2023/02/22 06:39:33;;;;;;;86.05;26.33;;;;;;;2.49;100.00;101183.97;5223656;28;20056;-75
2023/02/22 06:42:04;;;;;;;74.50;23.63;;;;;;;2.47;100.00;101168.19;5205716;28;20056;-75
2023/02/22 06:44:34;;;;;;;76.15;24.27;;;;;;;2.45;100.00;101154.19;5223299;28;20029;-75
2023/02/22 06:47:05;;;;;;;74.30;23.33;;;;;;;2.47;100.00;101156.75;5223185;28;20447;-75
2023/02/22 06:49:35;;;;;;;74.38;24.00;;;;;;;2.50;100.00;101165.31;5223627;28;20029;-75
2023/02/22 06:52:07;;;;;;;68.30;23.40;;;;;;;2.53;100.00;101172.22;5223604;28;20024;-75
2023/02/22 06:54:38;;;;;;;75.80;23.52;;;;;;;2.53;100.00;101173.06;5223248;28;20028;-75
2023/02/22 06:57:09;;;;;;;76.45;23.70;;;;;;;2.53;100.00;101177.50;5223017;28;20024;-76
2023/02/22 06:59:39;;;;;;;62.50;22.42;;;;;;;2.52;100.00;101174.00;5224141;28;20029;-76
2023/02/22 07:02:11;;;;;;;72.50;23.70;;;;;;;2.54;100.00;101174.75;5209583;28;20033;-76
2023/02/22 07:04:43;;;;;;;67.60;22.55;;;;;;;2.58;100.00;101170.09;5213595;28;20037;-76
2023/02/22 07:07:14;;;;;;;61.78;21.60;;;;;;;2.62;100.00;101163.63;5226719;28;20051;-76
2023/02/22 07:09:46;;;;;;;66.28;21.48;;;;;;;2.65;100.00;101162.53;5226426;28;20754;-76
2023/02/22 07:12:16;;;;;;;69.43;23.38;;;;;;;2.69;100.00;101164.88;5227147;28;20029;-76
2023/02/22 07:14:47;;;;;;;64.25;22.95;;;;;;;2.69;100.00;101171.97;5209228;28;20047;-76
2023/02/22 07:17:17;;;;;;;59.67;20.02;;;;;;;2.70;100.00;101174.50;5208564;28;20044;-76
2023/02/22 07:19:48;;;;;;;64.20;21.77;;;;;;;2.67;100.00;101187.16;5208961;28;20028;-76
2023/02/22 07:22:18;;;;;;;61.50;22.10;;;;;;;2.71;100.00;101189.47;5208601;28;20041;-76
2023/02/22 07:24:49;;;;;;;69.97;24.63;;;;;;;2.75;100.00;101185.63;5226997;28;20125;-76
2023/02/22 07:27:19;;;;;;;64.72;22.52;;;;;;;2.78;100.00;101182.78;5226082;28;20052;-76
2023/02/22 07:29:50;;;;;;;67.30;24.27;;;;;;;2.83;100.00;101190.41;5226598;28;20427;-76
2023/02/22 07:32:21;;;;;;;64.63;22.35;;;;;;;2.88;100.00;101176.84;5226380;28;20110;-76
2023/02/22 07:34:51;;;;;;;63.03;22.05;;;;;;;2.97;100.00;101178.84;5226512;28;20052;-76
2023/02/22 07:37:22;;;;;;;63.88;22.08;;;;;;;3.01;100.00;101178.50;5208182;28;20553;-76
2023/02/22 07:39:52;;;;;;;57.05;22.67;;;;;;;3.08;100.00;101170.97;5226051;28;20029;-76
2023/02/22 07:42:23;;;;;;;56.53;21.50;;;;;;;3.15;100.00;101169.53;5208744;28;20029;-76
2023/02/22 07:44:53;;;;;;;55.50;21.40;;;;;;;3.20;100.00;101164.75;5208278;28;20396;-76
2023/02/22 07:47:24;;;;;;;60.42;21.85;;;;;;;3.28;100.00;101167.72;5225980;28;20029;-76
2023/02/22 07:49:54;;;;;;;47.60;19.65;;;;;;;3.32;100.00;101163.88;5226012;28;20481;-76
2023/02/22 07:52:25;;;;;;;53.80;19.15;;;;;;;3.34;100.00;101145.19;5226413;28;20397;-76
2023/02/22 07:54:55;;;;;;;51.72;20.00;;;;;;;3.45;100.00;101155.88;5208491;28;20072;-76
2023/02/22 07:57:26;;;;;;;57.63;20.95;;;;;;;3.60;100.00;101164.50;5225916;28;20044;-76
2023/02/22 07:59:56;;;;;;;44.50;20.65;;;;;;;3.63;100.00;101161.63;5225992;28;20564;-75
2023/02/22 08:02:26;;;;;;;50.03;20.25;;;;;;;3.72;100.00;101171.56;5226149;28;20465;-76
2023/02/22 08:04:57;;;;;;;38.40;16.98;;;;;;;3.80;100.00;101168.31;5225853;28;20478;-76
2023/02/22 08:07:27;;;;;;;42.53;17.30;;;;;;;3.89;100.00;101167.63;5225622;28;20087;-76
2023/02/22 08:09:58;;;;;;;36.45;16.33;;;;;;;4.07;100.00;101165.41;5225349;28;20441;-76
2023/02/22 08:12:28;;;;;;;43.08;17.50;;;;;;;4.22;100.00;101166.03;5208179;28;20032;-76
2023/02/22 08:14:59;;;;;;;33.50;15.93;;;;;;;4.37;100.00;101154.25;5226111;28;20055;-76
2023/02/22 08:17:30;;;;;;;29.75;14.70;;;;;;;4.55;100.00;101158.13;5225228;28;20060;-76
2023/02/22 08:20:00;;;;;;;31.38;15.55;;;;;;;4.72;100.00;101154.16;5208225;28;20029;-76
2023/02/22 08:22:31;;;;;;;31.80;15.18;;;;;;;4.85;100.00;101154.00;5225308;28;20029;-76
2023/02/22 08:25:01;;;;;;;32.55;14.60;;;;;;;4.97;100.00;101155.72;5208078;28;20124;-76
2023/02/22 08:27:32;;;;;;;26.63;13.85;;;;;;;5.13;100.00;101157.97;5208301;28;20031;-76
2023/02/22 08:30:04;;;;;;;36.15;14.95;;;;;;;5.25;100.00;101154.31;5207821;28;20127;-76
2023/02/22 08:32:34;;;;;;;30.25;13.30;;;;;;;5.26;100.00;101153.34;5225731;28;20032;-76
2023/02/22 08:35:05;;;;;;;29.48;14.52;;;;;;;5.25;100.00;101154.31;5207355;28;20056;-76
2023/02/22 08:37:36;;;;;;;27.58;13.77;;;;;;;5.16;100.00;101147.91;5225157;28;20135;-76
2023/02/22 08:40:07;;;;;;;27.35;14.32;;;;;;;5.11;100.00;101146.59;5225086;28;20104;-76
2023/02/22 08:42:37;;;;;;;30.35;14.23;;;;;;;5.18;100.00;101148.66;5225202;28;20036;-76
2023/02/22 08:45:09;;;;;;;32.60;14.90;;;;;;;5.27;100.00;101151.53;5225469;28;20119;-75
2023/02/22 08:47:40;;;;;;;24.73;12.57;;;;;;;5.22;100.00;101151.94;5224681;28;20078;-76
2023/02/22 08:50:20;;;;;;;36.72;13.52;;;;;;;5.25;100.00;101153.47;5224793;28;20021;-76
2023/02/22 08:52:53;;;;;;;27.05;13.15;;;;;;;5.27;100.00;101155.06;5225289;28;20029;-76
2023/02/22 08:55:26;;;;;;;25.40;12.65;;;;;;;5.33;100.00;101141.25;5225078;28;20098;-76
2023/02/22 08:57:58;;;;;;;28.73;13.48;;;;;;;5.37;100.00;101150.69;5223625;28;20135;-76
2023/02/22 09:00:32;;;;;;;24.75;12.77;;;;;;;5.52;100.00;101148.53;5206737;28;20028;-75
2023/02/22 09:03:04;;;;;;;29.10;12.68;;;;;;;5.70;100.00;101152.34;5221107;28;20536;-76
2023/02/22 09:05:34;;;;;;;26.27;12.32;;;;;;;5.86;100.00;101153.75;5215763;28;20445;-76
2023/02/22 09:08:05;;;;;;;25.52;12.90;;;;;;;5.93;100.00;101147.81;5224222;28;20067;-76
2023/02/22 09:10:36;;;;;;;22.45;12.00;;;;;;;6.13;100.00;101138.16;5224065;28;20049;-76
2023/02/22 09:13:06;;;;;;;27.17;12.32;;;;;;;6.25;100.00;101133.59;5224431;28;20021;-76
2023/02/22 09:15:38;;;;;;;33.13;12.93;;;;;;;6.42;100.00;101143.63;5224464;28;20032;-76
2023/02/22 09:18:13;;;;;;;23.85;13.20;;;;;;;6.48;100.00;101142.28;5224368;28;20400;-75
2023/02/22 09:20:43;;;;;;;27.85;12.27;;;;;;;6.53;100.00;101137.41;5223885;28;20045;-75
2023/02/22 09:23:14;;;;;;;24.90;12.10;;;;;;;6.66;100.00;101130.00;5224068;28;20090;-75
2023/02/22 09:25:44;;;;;;;25.17;12.70;;;;;;;6.70;100.00;101136.75;5224456;28;20057;-75
2023/02/22 09:28:15;;;;;;;23.65;12.13;;;;;;;6.76;100.00;101138.03;5224090;28;20108;-76
2023/02/22 09:30:46;;;;;;;23.10;12.73;;;;;;;6.81;100.00;101127.81;5206196;28;20020;-76
2023/02/22 09:33:18;;;;;;;22.67;11.82;;;;;;;6.84;100.00;101134.72;5224116;28;20044;-75
2023/02/22 09:35:49;;;;;;;22.67;11.15;;;;;;;6.97;100.00;101136.13;5223998;28;20025;-76
2023/02/22 09:38:23;;;;;;;26.40;12.60;;;;;;;7.04;100.00;101140.97;5223778;28;20036;-75
2023/02/22 09:41:19;;;;;;;22.38;11.05;;;;;;;7.15;100.00;101143.50;5223917;28;20025;-75
2023/02/22 09:44:23;;;;;;;27.58;13.10;;;;;;;7.17;100.00;101149.53;5208453;28;20026;-76
2023/02/22 09:46:55;;;;;;;23.70;11.70;;;;;;;7.24;100.00;101142.69;5223514;28;20021;-75
2023/02/22 09:49:46;;;;;;;24.02;12.13;;;;;;;7.21;100.00;101140.28;5205919;28;20024;-75
2023/02/22 09:52:24;;;;;;;24.52;12.20;;;;;;;7.19;100.00;101136.91;5215914;28;20025;-76
2023/02/22 09:55:05;;;;;;;33.92;12.82;;;;;;;7.18;100.00;101136.09;5224142;28;20040;-76
2023/02/22 09:57:39;;;;;;;31.75;13.60;;;;;;;7.23;100.00;101133.00;5223498;28;20021;-76
2023/02/22 10:00:31;;;;;;;26.77;13.80;;;;;;;7.22;100.00;101142.81;5223621;28;20060;-75
2023/02/22 10:03:18;;;;;;;27.42;14.32;;;;;;;7.21;100.00;101145.63;5224092;28;20029;-76
2023/02/22 10:06:10;;;;;;;30.73;14.95;;;;;;;7.20;100.00;101147.44;5223868;28;20029;-76
2023/02/22 10:08:41;;;;;;;29.05;13.70;;;;;;;7.19;100.00;101142.25;5195382;28;20049;-76
2023/02/22 10:11:22;;;;;;;34.22;14.38;;;;;;;7.24;100.00;101138.19;5223412;28;20436;-76
2023/02/22 10:14:13;;;;;;;29.35;14.10;;;;;;;7.21;100.00;101138.47;5223858;28;20079;-76
2023/02/22 10:16:44;;;;;;;35.38;15.75;;;;;;;7.26;100.00;101141.56;5212038;28;20094;-76
2023/02/22 10:19:33;;;;;;;32.38;15.15;;;;;;;7.36;100.00;101140.72;5223261;28;20025;-76
2023/02/22 10:22:21;;;;;;;33.28;16.23;;;;;;;7.41;100.00;101142.00;5223783;28;20169;-76
2023/02/22 10:25:13;;;;;;;36.17;17.88;;;;;;;7.41;100.00;101138.50;5212108;28;20516;-76
2023/02/22 10:27:54;;;;;;;37.20;17.45;;;;;;;7.35;100.00;101141.72;5222941;28;20028;-76
2023/02/22 10:30:42;;;;;;;40.55;18.60;;;;;;;7.40;100.00;101143.00;5223633;28;20025;-76
2023/02/22 10:33:35;;;;;;;37.42;17.42;;;;;;;7.46;100.00;101134.41;5223729;28;20025;-76
2023/02/22 10:36:15;;;;;;;32.03;15.23;;;;;;;7.48;100.00;101144.94;5214756;28;20029;-76
2023/02/22 10:38:54;;;;;;;33.40;15.60;;;;;;;7.58;100.00;101140.50;5227219;28;20025;-76
2023/02/22 10:41:39;;;;;;;33.22;16.85;;;;;;;7.66;100.00;101143.28;5227231;28;20075;-76
2023/02/22 10:44:10;;;;;;;35.60;16.63;;;;;;;7.82;100.00;101136.53;5213469;28;20091;-76
2023/02/22 10:46:41;;;;;;;35.10;15.23;;;;;;;7.87;100.00;101134.28;5226850;28;20344;-76
2023/02/22 10:49:19;;;;;;;31.10;15.25;;;;;;;7.86;100.00;101137.94;5209790;28;20035;-76
2023/02/22 10:52:27;;;;;;;34.80;15.35;;;;;;;7.89;100.00;101127.00;5227474;28;20025;-76
2023/02/22 10:54:59;;;;;;;33.75;16.08;;;;;;;7.93;100.00;101137.25;5227184;28;20029;-76
2023/02/22 10:57:34;;;;;;;27.20;14.45;;;;;;;8.03;100.00;101131.88;5209073;28;20082;-76
2023/02/22 11:00:41;;;;;;;33.40;15.32;;;;;;;8.03;100.00;101129.19;5226918;28;20112;-76
2023/02/22 11:03:32;;;;;;;29.83;15.05;;;;;;;8.21;100.00;101127.50;5227045;28;20378;-76
2023/02/22 11:06:18;;;;;;;32.67;14.25;;;;;;;8.32;100.00;101121.13;5226662;28;20040;-76
2023/02/22 11:08:50;;;;;;;28.90;13.85;;;;;;;8.43;100.00;101123.66;5226967;28;20082;-76
2023/02/22 11:11:37;;;;;;;31.67;15.02;;;;;;;8.47;100.00;101125.06;5226200;28;20017;-76
2023/02/22 11:14:09;;;;;;;30.15;15.32;;;;;;;8.54;100.00;101118.16;5226655;28;20024;-76
2023/02/22 11:16:57;;;;;;;29.13;14.48;;;;;;;8.56;100.00;101118.00;5226613;28;20100;-76
2023/02/22 11:19:30;;;;;;;35.25;15.43;;;;;;;8.63;100.00;101115.56;5226590;28;20349;-76
2023/02/22 11:22:21;;;;;;;29.17;15.95;;;;;;;8.81;100.00;101111.97;5208694;28;20021;-76
2023/02/22 11:24:56;;;;;;;31.50;14.75;;;;;;;8.83;100.00;101117.16;5226741;28;20025;-76
2023/02/22 11:27:45;;;;;;;34.58;15.20;;;;;;;9.10;100.00;101116.34;5226191;28;20096;-76
2023/02/22 11:30:38;;;;;;;27.30;14.57;;;;;;;9.02;100.00;101114.38;5226313;28;20043;-76
2023/02/22 11:33:28;;;;;;;33.97;15.48;;;;;;;9.17;100.00;101121.91;5209266;28;20025;-76
2023/02/22 11:36:08;;;;;;;33.80;14.57;;;;;;;9.29;100.00;101102.81;5213809;28;20029;-76
2023/02/22 11:38:39;;;;;;;29.85;15.27;;;;;;;9.44;100.00;101108.50;5226073;28;21171;-76